Airfield :
LOGIN :

Register | Disclaimer

   EN    FR    IT 

 










Legend :    VFR   Marginal VFR   IFR   Intensive IFR   Very Intensive IFR
Visi :
Ceiling :
>= 8 km
>= 3000ft
5 to 8 km
1000 to 3000 ft
1500m to 5 km
500 to 1000 ft
800 to 1500m
200 to 500 ft
< 800m
< 200 ft
Symbols :   Thunderstorms  Fog  Heavy snow  Heavy precipitations  Wind > 20 kt
SIGMETs :     Misc.  Thunderstorms  Icing  Turbulence  Mountain Waves  Volcanic Ashes







- Airport Elevation : 102 ft
- IATA code : CNG
- Download approach charts


LFBG - Cognac

CURRENT METAR :
  • 192000Z AUTO 17007KT CAVOK 14/12 Q1011

EXPIRED METARs :
  • 191930Z AUTO 17007KT CAVOK 14/12 Q1011 NOSIG
  • 191900Z AUTO 17005KT CAVOK 15/12 Q1011 NOSIG
  • 191830Z AUTO 18005KT 9999 SCT028 SCT150 16/13 Q1011 NOSIG
  • 191800Z AUTO 18009KT 9999 SCT030 SCT160 16/13 Q1011 NOSIG
  • 191730Z AUTO 18005KT CAVOK 17/12 Q1010 NOSIG

TAF TAF LFBG
Valid from the 19 at 15:00 until the 20 at 15:00 UTC


191400Z 1915/2015 18010KT 9999 BKN030
TEMPO 2000/2006 5000 -RA BKN010
BECMG 2007/2009 BKN015
No reported NOTAMs for that airfield.
2 SIGMETs reported for the Bordeaux FIR (LFBB) :
 
Severe turbulence
LFBB SIGMET 9 VALID 191800/192200 LFPW
LFBB BORDEAUX FIR/UIR SEV TURB FCST SW OF LINE N4245 E00015 - N4545 W00145 FL220/310 MOV E 30KT WKN=
Embedded thunderstorms
LFBB SIGMET 10 VALID 191900/192100 LFPW
LFBB BORDEAUX FIR/UIR EMBD TS OBS S OF N4345 AND E OF E00215 TOP FL370 STNR NC=



MET'MAP, your aeronautical weather chart ! - Copyright ORBIFLY December 2007 - Disclaimer

ORBIFLY MET'MAP TEAM :

Programming & Development : Alexandra Zaïnal
Concept & Development : Baudouin d'Aumeries
Co-Development & Prog : Marc-Olivier Méhu
Technical & hardware support : Manuel Goepfert

Contact : metmap@orbifly.com




SOURCES & CREDITS :

   NOAA